sensor_id;sensor_type;location;lat;lon;timestamp;P1;durP1;ratioP1;P2;durP2;ratioP2
10244;SDS011;5167;52.164;10.530;2022-08-21T00:01:42;4.10;;;2.92;;
10244;SDS011;5167;52.164;10.530;2022-08-21T00:04:08;5.32;;;2.97;;
10244;SDS011;5167;52.164;10.530;2022-08-21T00:06:35;5.00;;;2.53;;
10244;SDS011;5167;52.164;10.530;2022-08-21T00:09:03;3.63;;;2.55;;
10244;SDS011;5167;52.164;10.530;2022-08-21T00:11:30;3.30;;;2.65;;
10244;SDS011;5167;52.164;10.530;2022-08-21T00:13:56;4.20;;;2.58;;
10244;SDS011;5167;52.164;10.530;2022-08-21T00:16:21;5.82;;;2.60;;
10244;SDS011;5167;52.164;10.530;2022-08-21T00:18:47;5.57;;;2.95;;
10244;SDS011;5167;52.164;10.530;2022-08-21T00:21:14;5.65;;;2.60;;
10244;SDS011;5167;52.164;10.530;2022-08-21T00:23:39;7.00;;;2.65;;
10244;SDS011;5167;52.164;10.530;2022-08-21T00:26:05;4.13;;;2.70;;
10244;SDS011;5167;52.164;10.530;2022-08-21T00:28:31;6.50;;;2.38;;
10244;SDS011;5167;52.164;10.530;2022-08-21T00:30:57;5.07;;;2.90;;
10244;SDS011;5167;52.164;10.530;2022-08-21T00:33:23;5.88;;;2.47;;
10244;SDS011;5167;52.164;10.530;2022-08-21T00:35:50;7.22;;;3.00;;
10244;SDS011;5167;52.164;10.530;2022-08-21T00:38:15;7.63;;;2.67;;
10244;SDS011;5167;52.164;10.530;2022-08-21T00:40:47;6.97;;;2.60;;
10244;SDS011;5167;52.164;10.530;2022-08-21T00:43:15;5.22;;;2.83;;
10244;SDS011;5167;52.164;10.530;2022-08-21T00:45:43;7.82;;;2.65;;
10244;SDS011;5167;52.164;10.530;2022-08-21T00:48:09;4.50;;;2.83;;
10244;SDS011;5167;52.164;10.530;2022-08-21T00:50:36;3.08;;;2.60;;
10244;SDS011;5167;52.164;10.530;2022-08-21T00:53:06;5.97;;;2.80;;
10244;SDS011;5167;52.164;10.530;2022-08-21T00:55:34;6.22;;;2.72;;
10244;SDS011;5167;52.164;10.530;2022-08-21T00:58:01;2.60;;;2.40;;
10244;SDS011;5167;52.164;10.530;2022-08-21T01:00:31;5.97;;;2.58;;
10244;SDS011;5167;52.164;10.530;2022-08-21T01:03:02;3.70;;;2.83;;
10244;SDS011;5167;52.164;10.530;2022-08-21T01:05:32;4.50;;;2.35;;
10244;SDS011;5167;52.164;10.530;2022-08-21T01:07:57;4.72;;;2.80;;
10244;SDS011;5167;52.164;10.530;2022-08-21T01:10:23;3.85;;;3.13;;
10244;SDS011;5167;52.164;10.530;2022-08-21T01:12:53;6.90;;;3.35;;
10244;SDS011;5167;52.164;10.530;2022-08-21T01:15:20;8.95;;;4.25;;
10244;SDS011;5167;52.164;10.530;2022-08-21T01:17:49;13.00;;;6.05;;
10244;SDS011;5167;52.164;10.530;2022-08-21T01:20:15;14.15;;;6.03;;
10244;SDS011;5167;52.164;10.530;2022-08-21T01:22:41;17.13;;;6.50;;
10244;SDS011;5167;52.164;10.530;2022-08-21T01:25:08;12.45;;;5.35;;
10244;SDS011;5167;52.164;10.530;2022-08-21T01:27:35;13.30;;;6.20;;
10244;SDS011;5167;52.164;10.530;2022-08-21T01:30:04;18.52;;;6.22;;
10244;SDS011;5167;52.164;10.530;2022-08-21T01:32:36;13.02;;;5.15;;
10244;SDS011;5167;52.164;10.530;2022-08-21T01:35:03;11.52;;;5.20;;
10244;SDS011;5167;52.164;10.530;2022-08-21T01:37:30;12.05;;;4.55;;
10244;SDS011;5167;52.164;10.530;2022-08-21T01:39:56;15.35;;;4.35;;
10244;SDS011;5167;52.164;10.530;2022-08-21T01:42:21;9.75;;;4.45;;
10244;SDS011;5167;52.164;10.530;2022-08-21T01:44:47;8.60;;;3.72;;
10244;SDS011;5167;52.164;10.530;2022-08-21T01:47:13;10.35;;;4.53;;
10244;SDS011;5167;52.164;10.530;2022-08-21T01:49:39;11.27;;;4.25;;
10244;SDS011;5167;52.164;10.530;2022-08-21T01:52:06;8.02;;;3.95;;
10244;SDS011;5167;52.164;10.530;2022-08-21T01:54:32;7.15;;;3.97;;
10244;SDS011;5167;52.164;10.530;2022-08-21T01:56:58;6.05;;;3.75;;
10244;SDS011;5167;52.164;10.530;2022-08-21T01:59:25;6.45;;;3.30;;
10244;SDS011;5167;52.164;10.530;2022-08-21T02:01:52;8.02;;;3.00;;
10244;SDS011;5167;52.164;10.530;2022-08-21T02:04:19;5.38;;;2.85;;
10244;SDS011;5167;52.164;10.530;2022-08-21T02:06:45;5.82;;;3.25;;
10244;SDS011;5167;52.164;10.530;2022-08-21T02:09:11;7.05;;;2.70;;
10244;SDS011;5167;52.164;10.530;2022-08-21T02:11:38;5.60;;;2.95;;
10244;SDS011;5167;52.164;10.530;2022-08-21T02:14:10;9.10;;;2.92;;
10244;SDS011;5167;52.164;10.530;2022-08-21T02:16:39;5.05;;;2.78;;
10244;SDS011;5167;52.164;10.530;2022-08-21T02:19:06;3.53;;;2.83;;
10244;SDS011;5167;52.164;10.530;2022-08-21T02:21:31;8.63;;;2.70;;
10244;SDS011;5167;52.164;10.530;2022-08-21T02:23:57;5.30;;;3.17;;
10244;SDS011;5167;52.164;10.530;2022-08-21T02:26:23;5.05;;;2.53;;
10244;SDS011;5167;52.164;10.530;2022-08-21T02:28:49;3.35;;;2.95;;
10244;SDS011;5167;52.164;10.530;2022-08-21T02:31:15;4.70;;;2.22;;
10244;SDS011;5167;52.164;10.530;2022-08-21T02:33:41;3.08;;;2.65;;
10244;SDS011;5167;52.164;10.530;2022-08-21T02:36:07;4.28;;;2.42;;
10244;SDS011;5167;52.164;10.530;2022-08-21T02:38:33;6.75;;;2.90;;
10244;SDS011;5167;52.164;10.530;2022-08-21T02:41:03;3.10;;;2.33;;
10244;SDS011;5167;52.164;10.530;2022-08-21T02:43:30;3.90;;;2.92;;
10244;SDS011;5167;52.164;10.530;2022-08-21T02:45:57;4.18;;;2.33;;
10244;SDS011;5167;52.164;10.530;2022-08-21T02:48:27;4.70;;;2.67;;
10244;SDS011;5167;52.164;10.530;2022-08-21T02:50:59;4.70;;;2.63;;
10244;SDS011;5167;52.164;10.530;2022-08-21T02:53:30;4.47;;;2.92;;
10244;SDS011;5167;52.164;10.530;2022-08-21T02:55:57;5.53;;;2.60;;
10244;SDS011;5167;52.164;10.530;2022-08-21T02:58:28;4.82;;;2.85;;
10244;SDS011;5167;52.164;10.530;2022-08-21T03:00:56;3.90;;;2.38;;
10244;SDS011;5167;52.164;10.530;2022-08-21T03:03:23;7.18;;;3.70;;
10244;SDS011;5167;52.164;10.530;2022-08-21T03:05:49;3.78;;;2.47;;
10244;SDS011;5167;52.164;10.530;2022-08-21T03:08:16;4.03;;;2.65;;
10244;SDS011;5167;52.164;10.530;2022-08-21T03:10:44;5.40;;;2.78;;
10244;SDS011;5167;52.164;10.530;2022-08-21T03:13:11;4.10;;;2.25;;
10244;SDS011;5167;52.164;10.530;2022-08-21T03:15:37;3.20;;;2.63;;
10244;SDS011;5167;52.164;10.530;2022-08-21T03:18:05;3.22;;;2.45;;
10244;SDS011;5167;52.164;10.530;2022-08-21T03:20:32;3.88;;;2.17;;
10244;SDS011;5167;52.164;10.530;2022-08-21T03:22:58;2.80;;;2.22;;
10244;SDS011;5167;52.164;10.530;2022-08-21T03:25:25;6.88;;;2.42;;
10244;SDS011;5167;52.164;10.530;2022-08-21T03:27:52;4.97;;;2.50;;
10244;SDS011;5167;52.164;10.530;2022-08-21T03:30:19;8.15;;;2.60;;
10244;SDS011;5167;52.164;10.530;2022-08-21T03:32:46;3.90;;;2.65;;
10244;SDS011;5167;52.164;10.530;2022-08-21T03:35:12;4.40;;;2.58;;
10244;SDS011;5167;52.164;10.530;2022-08-21T03:37:38;4.25;;;2.42;;
10244;SDS011;5167;52.164;10.530;2022-08-21T03:40:05;3.80;;;2.60;;
10244;SDS011;5167;52.164;10.530;2022-08-21T03:42:32;5.25;;;2.78;;
10244;SDS011;5167;52.164;10.530;2022-08-21T03:44:58;3.58;;;2.35;;
10244;SDS011;5167;52.164;10.530;2022-08-21T03:47:24;6.80;;;3.00;;
10244;SDS011;5167;52.164;10.530;2022-08-21T03:49:50;6.95;;;2.60;;
10244;SDS011;5167;52.164;10.530;2022-08-21T03:52:15;4.43;;;2.75;;
10244;SDS011;5167;52.164;10.530;2022-08-21T03:54:42;5.63;;;2.78;;
10244;SDS011;5167;52.164;10.530;2022-08-21T03:57:08;7.68;;;2.83;;
10244;SDS011;5167;52.164;10.530;2022-08-21T03:59:35;4.45;;;2.30;;
10244;SDS011;5167;52.164;10.530;2022-08-21T04:02:03;4.10;;;3.10;;
10244;SDS011;5167;52.164;10.530;2022-08-21T04:04:31;4.35;;;2.72;;
10244;SDS011;5167;52.164;10.530;2022-08-21T04:06:57;3.22;;;2.47;;
10244;SDS011;5167;52.164;10.530;2022-08-21T04:09:23;6.45;;;2.83;;
10244;SDS011;5167;52.164;10.530;2022-08-21T04:11:50;10.27;;;3.33;;
10244;SDS011;5167;52.164;10.530;2022-08-21T04:14:16;4.28;;;2.65;;
10244;SDS011;5167;52.164;10.530;2022-08-21T04:16:43;8.07;;;2.88;;
10244;SDS011;5167;52.164;10.530;2022-08-21T04:19:10;6.53;;;2.85;;
10244;SDS011;5167;52.164;10.530;2022-08-21T04:21:36;3.60;;;2.63;;
10244;SDS011;5167;52.164;10.530;2022-08-21T04:24:06;5.05;;;2.65;;
10244;SDS011;5167;52.164;10.530;2022-08-21T04:26:36;6.85;;;2.80;;
10244;SDS011;5167;52.164;10.530;2022-08-21T04:29:03;4.68;;;2.95;;
10244;SDS011;5167;52.164;10.530;2022-08-21T04:31:31;9.38;;;3.50;;
10244;SDS011;5167;52.164;10.530;2022-08-21T04:33:57;3.13;;;2.33;;
10244;SDS011;5167;52.164;10.530;2022-08-21T04:36:23;4.88;;;2.85;;
10244;SDS011;5167;52.164;10.530;2022-08-21T04:38:48;8.13;;;3.03;;
10244;SDS011;5167;52.164;10.530;2022-08-21T04:41:14;3.90;;;2.80;;
10244;SDS011;5167;52.164;10.530;2022-08-21T04:43:40;3.45;;;3.00;;
10244;SDS011;5167;52.164;10.530;2022-08-21T04:46:05;5.00;;;2.88;;
10244;SDS011;5167;52.164;10.530;2022-08-21T04:48:31;3.60;;;2.63;;
10244;SDS011;5167;52.164;10.530;2022-08-21T04:51:02;8.13;;;2.92;;
10244;SDS011;5167;52.164;10.530;2022-08-21T04:56:05;3.45;;;2.70;;
10244;SDS011;5167;52.164;10.530;2022-08-21T04:58:36;4.38;;;2.60;;
10244;SDS011;5167;52.164;10.530;2022-08-21T05:01:03;5.57;;;2.47;;
10244;SDS011;5167;52.164;10.530;2022-08-21T05:03:32;12.32;;;3.13;;
10244;SDS011;5167;52.164;10.530;2022-08-21T05:06:00;6.20;;;3.47;;
10244;SDS011;5167;52.164;10.530;2022-08-21T05:08:28;4.30;;;2.80;;
10244;SDS011;5167;52.164;10.530;2022-08-21T05:10:54;4.72;;;2.97;;
10244;SDS011;5167;52.164;10.530;2022-08-21T05:13:20;3.75;;;2.70;;
10244;SDS011;5167;52.164;10.530;2022-08-21T05:15:46;7.18;;;3.40;;
10244;SDS011;5167;52.164;10.530;2022-08-21T05:18:11;3.08;;;2.50;;
10244;SDS011;5167;52.164;10.530;2022-08-21T05:20:38;3.50;;;2.47;;
10244;SDS011;5167;52.164;10.530;2022-08-21T05:23:10;5.13;;;2.53;;
10244;SDS011;5167;52.164;10.530;2022-08-21T05:25:37;3.33;;;2.38;;
10244;SDS011;5167;52.164;10.530;2022-08-21T05:28:03;3.95;;;2.70;;
10244;SDS011;5167;52.164;10.530;2022-08-21T05:30:30;4.10;;;2.78;;
10244;SDS011;5167;52.164;10.530;2022-08-21T05:32:57;3.92;;;2.88;;
10244;SDS011;5167;52.164;10.530;2022-08-21T05:35:24;4.95;;;2.33;;
10244;SDS011;5167;52.164;10.530;2022-08-21T05:37:50;3.47;;;2.45;;
10244;SDS011;5167;52.164;10.530;2022-08-21T05:40:15;7.90;;;2.33;;
10244;SDS011;5167;52.164;10.530;2022-08-21T05:42:41;4.35;;;2.65;;
10244;SDS011;5167;52.164;10.530;2022-08-21T05:45:07;4.18;;;2.78;;
10244;SDS011;5167;52.164;10.530;2022-08-21T05:47:32;3.45;;;2.40;;
10244;SDS011;5167;52.164;10.530;2022-08-21T05:49:58;10.32;;;2.60;;
10244;SDS011;5167;52.164;10.530;2022-08-21T05:52:23;3.97;;;2.63;;
10244;SDS011;5167;52.164;10.530;2022-08-21T05:54:49;5.18;;;3.10;;
10244;SDS011;5167;52.164;10.530;2022-08-21T05:57:15;4.05;;;2.75;;
10244;SDS011;5167;52.164;10.530;2022-08-21T05:59:41;7.80;;;3.13;;
10244;SDS011;5167;52.164;10.530;2022-08-21T06:02:06;5.18;;;3.25;;
10244;SDS011;5167;52.164;10.530;2022-08-21T06:04:39;6.18;;;3.00;;
10244;SDS011;5167;52.164;10.530;2022-08-21T06:07:05;3.42;;;2.70;;
10244;SDS011;5167;52.164;10.530;2022-08-21T06:09:32;8.07;;;3.70;;
10244;SDS011;5167;52.164;10.530;2022-08-21T06:11:58;5.75;;;3.63;;
10244;SDS011;5167;52.164;10.530;2022-08-21T06:14:27;9.30;;;3.65;;
10244;SDS011;5167;52.164;10.530;2022-08-21T06:16:53;5.90;;;3.30;;
10244;SDS011;5167;52.164;10.530;2022-08-21T06:19:18;5.53;;;3.70;;
10244;SDS011;5167;52.164;10.530;2022-08-21T06:21:44;4.22;;;3.25;;
10244;SDS011;5167;52.164;10.530;2022-08-21T06:24:10;4.38;;;3.45;;
10244;SDS011;5167;52.164;10.530;2022-08-21T06:26:36;5.72;;;3.75;;
10244;SDS011;5167;52.164;10.530;2022-08-21T06:29:02;5.05;;;3.65;;
10244;SDS011;5167;52.164;10.530;2022-08-21T06:31:27;3.80;;;3.40;;
10244;SDS011;5167;52.164;10.530;2022-08-21T06:33:54;5.57;;;3.30;;
10244;SDS011;5167;52.164;10.530;2022-08-21T06:36:20;6.20;;;3.55;;
10244;SDS011;5167;52.164;10.530;2022-08-21T06:38:46;4.35;;;3.10;;
10244;SDS011;5167;52.164;10.530;2022-08-21T06:41:13;3.95;;;3.55;;
10244;SDS011;5167;52.164;10.530;2022-08-21T06:43:39;6.57;;;3.83;;
10244;SDS011;5167;52.164;10.530;2022-08-21T06:46:04;6.63;;;3.67;;
10244;SDS011;5167;52.164;10.530;2022-08-21T06:48:31;7.85;;;3.58;;
10244;SDS011;5167;52.164;10.530;2022-08-21T06:50:58;5.50;;;2.97;;
10244;SDS011;5167;52.164;10.530;2022-08-21T06:53:26;5.45;;;3.50;;
10244;SDS011;5167;52.164;10.530;2022-08-21T06:55:51;7.32;;;3.63;;
10244;SDS011;5167;52.164;10.530;2022-08-21T06:58:17;3.88;;;3.33;;
10244;SDS011;5167;52.164;10.530;2022-08-21T07:00:45;6.28;;;3.15;;
10244;SDS011;5167;52.164;10.530;2022-08-21T07:03:25;3.38;;;2.95;;
10244;SDS011;5167;52.164;10.530;2022-08-21T07:05:53;3.80;;;2.70;;
10244;SDS011;5167;52.164;10.530;2022-08-21T07:08:19;4.68;;;2.30;;
10244;SDS011;5167;52.164;10.530;2022-08-21T07:10:46;4.78;;;2.70;;
10244;SDS011;5167;52.164;10.530;2022-08-21T07:13:13;3.10;;;2.80;;
10244;SDS011;5167;52.164;10.530;2022-08-21T07:15:39;4.28;;;2.72;;
10244;SDS011;5167;52.164;10.530;2022-08-21T07:18:04;4.40;;;2.17;;
10244;SDS011;5167;52.164;10.530;2022-08-21T07:20:31;13.75;;;2.30;;
10244;SDS011;5167;52.164;10.530;2022-08-21T07:22:58;4.32;;;1.90;;
10244;SDS011;5167;52.164;10.530;2022-08-21T07:25:26;3.35;;;2.10;;
10244;SDS011;5167;52.164;10.530;2022-08-21T07:27:52;4.03;;;1.90;;
10244;SDS011;5167;52.164;10.530;2022-08-21T07:30:18;2.88;;;1.80;;
10244;SDS011;5167;52.164;10.530;2022-08-21T07:32:44;5.13;;;1.90;;
10244;SDS011;5167;52.164;10.530;2022-08-21T07:35:10;2.28;;;1.50;;
10244;SDS011;5167;52.164;10.530;2022-08-21T07:37:35;2.30;;;1.65;;
10244;SDS011;5167;52.164;10.530;2022-08-21T07:40:01;6.35;;;1.67;;
10244;SDS011;5167;52.164;10.530;2022-08-21T07:42:27;3.38;;;1.27;;
10244;SDS011;5167;52.164;10.530;2022-08-21T07:44:54;2.83;;;1.67;;
10244;SDS011;5167;52.164;10.530;2022-08-21T07:47:20;4.25;;;1.45;;
10244;SDS011;5167;52.164;10.530;2022-08-21T07:49:46;1.95;;;1.60;;
10244;SDS011;5167;52.164;10.530;2022-08-21T07:52:11;1.60;;;1.48;;
10244;SDS011;5167;52.164;10.530;2022-08-21T07:54:37;1.88;;;1.20;;
10244;SDS011;5167;52.164;10.530;2022-08-21T07:57:02;3.40;;;1.55;;
10244;SDS011;5167;52.164;10.530;2022-08-21T07:59:29;3.20;;;1.75;;
10244;SDS011;5167;52.164;10.530;2022-08-21T08:01:54;3.88;;;1.35;;
10244;SDS011;5167;52.164;10.530;2022-08-21T08:04:21;3.20;;;1.60;;
10244;SDS011;5167;52.164;10.530;2022-08-21T08:06:47;2.05;;;1.13;;
10244;SDS011;5167;52.164;10.530;2022-08-21T08:09:12;3.47;;;1.92;;
10244;SDS011;5167;52.164;10.530;2022-08-21T08:11:38;1.55;;;1.45;;
10244;SDS011;5167;52.164;10.530;2022-08-21T08:14:08;3.53;;;1.70;;
10244;SDS011;5167;52.164;10.530;2022-08-21T08:16:34;4.43;;;1.55;;
10244;SDS011;5167;52.164;10.530;2022-08-21T08:19:00;1.60;;;1.45;;
10244;SDS011;5167;52.164;10.530;2022-08-21T08:21:25;3.60;;;1.35;;
10244;SDS011;5167;52.164;10.530;2022-08-21T08:23:52;1.55;;;1.40;;
10244;SDS011;5167;52.164;10.530;2022-08-21T08:26:18;4.35;;;1.70;;
10244;SDS011;5167;52.164;10.530;2022-08-21T08:28:44;1.70;;;1.48;;
10244;SDS011;5167;52.164;10.530;2022-08-21T08:31:11;1.77;;;1.45;;
10244;SDS011;5167;52.164;10.530;2022-08-21T08:33:37;1.60;;;1.50;;
10244;SDS011;5167;52.164;10.530;2022-08-21T08:36:03;3.47;;;1.55;;
10244;SDS011;5167;52.164;10.530;2022-08-21T08:38:28;4.55;;;1.65;;
10244;SDS011;5167;52.164;10.530;2022-08-21T08:43:29;2.65;;;1.45;;
10244;SDS011;5167;52.164;10.530;2022-08-21T08:45:57;5.00;;;1.63;;
10244;SDS011;5167;52.164;10.530;2022-08-21T08:48:49;3.40;;;1.80;;
10244;SDS011;5167;52.164;10.530;2022-08-21T08:53:57;4.82;;;2.42;;
10244;SDS011;5167;52.164;10.530;2022-08-21T08:56:28;3.47;;;2.17;;
10244;SDS011;5167;52.164;10.530;2022-08-21T08:58:57;6.60;;;3.15;;
10244;SDS011;5167;52.164;10.530;2022-08-21T09:01:26;5.30;;;2.50;;
10244;SDS011;5167;52.164;10.530;2022-08-21T09:03:52;4.70;;;2.40;;
10244;SDS011;5167;52.164;10.530;2022-08-21T09:17:19;6.45;;;2.60;;
10244;SDS011;5167;52.164;10.530;2022-08-21T09:20:19;5.80;;;3.03;;
10244;SDS011;5167;52.164;10.530;2022-08-21T09:23:07;5.65;;;2.80;;
10244;SDS011;5167;52.164;10.530;2022-08-21T09:25:59;6.10;;;3.38;;
10244;SDS011;5167;52.164;10.530;2022-08-21T09:28:33;6.80;;;3.17;;
10244;SDS011;5167;52.164;10.530;2022-08-21T09:31:00;5.85;;;3.25;;
10244;SDS011;5167;52.164;10.530;2022-08-21T09:33:28;4.60;;;2.60;;
10244;SDS011;5167;52.164;10.530;2022-08-21T09:35:55;7.35;;;2.95;;
10244;SDS011;5167;52.164;10.530;2022-08-21T09:38:25;8.13;;;2.55;;
10244;SDS011;5167;52.164;10.530;2022-08-21T09:41:07;6.68;;;2.83;;
10244;SDS011;5167;52.164;10.530;2022-08-21T09:43:34;6.25;;;2.53;;
10244;SDS011;5167;52.164;10.530;2022-08-21T09:48:38;7.70;;;2.67;;
10244;SDS011;5167;52.164;10.530;2022-08-21T09:51:07;6.88;;;2.75;;
10244;SDS011;5167;52.164;10.530;2022-08-21T09:53:37;8.32;;;2.40;;
10244;SDS011;5167;52.164;10.530;2022-08-21T09:56:18;7.25;;;2.60;;
10244;SDS011;5167;52.164;10.530;2022-08-21T09:59:16;6.53;;;2.47;;
10244;SDS011;5167;52.164;10.530;2022-08-21T10:01:45;6.80;;;2.65;;
10244;SDS011;5167;52.164;10.530;2022-08-21T10:04:13;6.57;;;2.28;;
10244;SDS011;5167;52.164;10.530;2022-08-21T10:06:40;7.80;;;2.72;;
10244;SDS011;5167;52.164;10.530;2022-08-21T10:09:07;7.30;;;2.60;;
10244;SDS011;5167;52.164;10.530;2022-08-21T10:11:35;8.93;;;2.60;;
10244;SDS011;5167;52.164;10.530;2022-08-21T10:16:45;6.68;;;2.42;;
10244;SDS011;5167;52.164;10.530;2022-08-21T10:27:47;7.03;;;2.33;;
10244;SDS011;5167;52.164;10.530;2022-08-21T10:33:21;7.07;;;2.50;;
10244;SDS011;5167;52.164;10.530;2022-08-21T10:56:13;8.15;;;2.58;;
10244;SDS011;5167;52.164;10.530;2022-08-21T10:58:40;5.28;;;2.47;;
10244;SDS011;5167;52.164;10.530;2022-08-21T11:01:15;4.15;;;2.50;;
10244;SDS011;5167;52.164;10.530;2022-08-21T11:03:50;7.85;;;2.70;;
10244;SDS011;5167;52.164;10.530;2022-08-21T11:06:21;25.35;;;13.50;;
10244;SDS011;5167;52.164;10.530;2022-08-21T11:08:51;6.53;;;2.38;;
10244;SDS011;5167;52.164;10.530;2022-08-21T11:12:06;3.92;;;2.10;;
10244;SDS011;5167;52.164;10.530;2022-08-21T11:17:30;3.53;;;1.67;;
10244;SDS011;5167;52.164;10.530;2022-08-21T11:20:12;8.77;;;2.58;;
10244;SDS011;5167;52.164;10.530;2022-08-21T11:22:49;12.43;;;2.88;;
10244;SDS011;5167;52.164;10.530;2022-08-21T11:28:10;5.00;;;2.00;;
10244;SDS011;5167;52.164;10.530;2022-08-21T11:30:48;4.47;;;2.38;;
10244;SDS011;5167;52.164;10.530;2022-08-21T11:33:54;4.75;;;2.10;;
10244;SDS011;5167;52.164;10.530;2022-08-21T11:41:59;14.50;;;2.53;;
10244;SDS011;5167;52.164;10.530;2022-08-21T11:47:45;8.70;;;2.65;;
10244;SDS011;5167;52.164;10.530;2022-08-21T11:50:23;5.38;;;2.53;;
10244;SDS011;5167;52.164;10.530;2022-08-21T11:55:56;4.53;;;2.22;;
10244;SDS011;5167;52.164;10.530;2022-08-21T11:58:36;4.47;;;2.42;;
10244;SDS011;5167;52.164;10.530;2022-08-21T12:01:17;5.38;;;2.05;;
10244;SDS011;5167;52.164;10.530;2022-08-21T12:03:57;4.57;;;2.88;;
10244;SDS011;5167;52.164;10.530;2022-08-21T12:06:31;4.85;;;2.13;;
10244;SDS011;5167;52.164;10.530;2022-08-21T12:09:06;8.13;;;2.80;;
10244;SDS011;5167;52.164;10.530;2022-08-21T12:11:51;6.43;;;2.30;;
10244;SDS011;5167;52.164;10.530;2022-08-21T12:17:08;5.18;;;2.47;;
10244;SDS011;5167;52.164;10.530;2022-08-21T12:19:56;5.53;;;2.40;;
10244;SDS011;5167;52.164;10.530;2022-08-21T12:22:30;2.28;;;1.80;;
10244;SDS011;5167;52.164;10.530;2022-08-21T12:25:05;5.88;;;2.13;;
10244;SDS011;5167;52.164;10.530;2022-08-21T12:35:32;5.35;;;2.00;;
10244;SDS011;5167;52.164;10.530;2022-08-21T12:40:53;3.08;;;2.20;;
10244;SDS011;5167;52.164;10.530;2022-08-21T12:43:22;5.90;;;2.17;;
10244;SDS011;5167;52.164;10.530;2022-08-21T12:46:02;3.67;;;2.63;;
10244;SDS011;5167;52.164;10.530;2022-08-21T12:48:39;4.57;;;1.70;;
10244;SDS011;5167;52.164;10.530;2022-08-21T12:51:12;2.63;;;1.60;;
10244;SDS011;5167;52.164;10.530;2022-08-21T12:56:20;5.00;;;1.98;;
10244;SDS011;5167;52.164;10.530;2022-08-21T12:58:53;7.55;;;1.85;;
10244;SDS011;5167;52.164;10.530;2022-08-21T13:01:29;5.28;;;2.25;;
10244;SDS011;5167;52.164;10.530;2022-08-21T13:04:01;4.85;;;1.90;;
10244;SDS011;5167;52.164;10.530;2022-08-21T13:06:36;5.63;;;1.63;;
10244;SDS011;5167;52.164;10.530;2022-08-21T13:09:11;6.55;;;1.80;;
10244;SDS011;5167;52.164;10.530;2022-08-21T13:11:39;5.57;;;1.52;;
10244;SDS011;5167;52.164;10.530;2022-08-21T13:14:06;5.80;;;2.10;;
10244;SDS011;5167;52.164;10.530;2022-08-21T13:16:59;4.47;;;2.03;;
10244;SDS011;5167;52.164;10.530;2022-08-21T13:19:26;3.35;;;1.40;;
10244;SDS011;5167;52.164;10.530;2022-08-21T13:21:54;1.95;;;1.50;;
10244;SDS011;5167;52.164;10.530;2022-08-21T13:26:57;2.50;;;1.50;;
10244;SDS011;5167;52.164;10.530;2022-08-21T13:29:27;2.90;;;1.38;;
10244;SDS011;5167;52.164;10.530;2022-08-21T13:31:59;5.32;;;1.35;;
10244;SDS011;5167;52.164;10.530;2022-08-21T13:34:29;3.45;;;1.73;;
10244;SDS011;5167;52.164;10.530;2022-08-21T13:36:58;3.08;;;1.27;;
10244;SDS011;5167;52.164;10.530;2022-08-21T13:39:28;2.90;;;1.42;;
10244;SDS011;5167;52.164;10.530;2022-08-21T13:41:55;2.20;;;1.40;;
10244;SDS011;5167;52.164;10.530;2022-08-21T13:44:36;1.67;;;1.58;;
10244;SDS011;5167;52.164;10.530;2022-08-21T13:47:07;2.25;;;1.30;;
10244;SDS011;5167;52.164;10.530;2022-08-21T13:49:37;1.67;;;1.25;;
10244;SDS011;5167;52.164;10.530;2022-08-21T13:52:12;5.18;;;1.63;;
10244;SDS011;5167;52.164;10.530;2022-08-21T13:55:06;4.03;;;1.27;;
10244;SDS011;5167;52.164;10.530;2022-08-21T13:57:34;2.88;;;1.55;;
10244;SDS011;5167;52.164;10.530;2022-08-21T14:00:19;6.68;;;1.30;;
10244;SDS011;5167;52.164;10.530;2022-08-21T14:02:51;3.22;;;1.40;;
10244;SDS011;5167;52.164;10.530;2022-08-21T14:05:28;3.22;;;1.13;;
10244;SDS011;5167;52.164;10.530;2022-08-21T14:10:43;3.13;;;1.40;;
10244;SDS011;5167;52.164;10.530;2022-08-21T14:13:47;3.13;;;1.10;;
10244;SDS011;5167;52.164;10.530;2022-08-21T14:16:25;3.15;;;1.23;;
10244;SDS011;5167;52.164;10.530;2022-08-21T14:19:06;4.05;;;1.67;;
10244;SDS011;5167;52.164;10.530;2022-08-21T14:21:52;2.38;;;1.10;;
10244;SDS011;5167;52.164;10.530;2022-08-21T14:26:52;3.80;;;1.30;;
10244;SDS011;5167;52.164;10.530;2022-08-21T14:29:37;5.35;;;1.10;;
10244;SDS011;5167;52.164;10.530;2022-08-21T14:32:09;2.92;;;1.30;;
10244;SDS011;5167;52.164;10.530;2022-08-21T14:34:44;2.33;;;1.20;;
10244;SDS011;5167;52.164;10.530;2022-08-21T14:37:10;3.50;;;1.40;;
10244;SDS011;5167;52.164;10.530;2022-08-21T14:39:36;2.05;;;0.98;;
10244;SDS011;5167;52.164;10.530;2022-08-21T14:42:02;4.38;;;1.08;;
10244;SDS011;5167;52.164;10.530;2022-08-21T14:44:28;1.70;;;1.40;;
10244;SDS011;5167;52.164;10.530;2022-08-21T14:46:53;3.03;;;1.30;;
10244;SDS011;5167;52.164;10.530;2022-08-21T14:49:20;2.47;;;1.40;;
10244;SDS011;5167;52.164;10.530;2022-08-21T14:51:46;5.15;;;2.92;;
10244;SDS011;5167;52.164;10.530;2022-08-21T14:54:12;2.67;;;1.60;;
10244;SDS011;5167;52.164;10.530;2022-08-21T14:56:37;1.40;;;1.30;;
10244;SDS011;5167;52.164;10.530;2022-08-21T14:59:04;2.53;;;1.20;;
10244;SDS011;5167;52.164;10.530;2022-08-21T15:01:34;4.88;;;1.33;;
10244;SDS011;5167;52.164;10.530;2022-08-21T15:04:02;2.45;;;0.90;;
10244;SDS011;5167;52.164;10.530;2022-08-21T15:06:28;3.53;;;0.90;;
10244;SDS011;5167;52.164;10.530;2022-08-21T15:08:53;3.45;;;1.08;;
10244;SDS011;5167;52.164;10.530;2022-08-21T15:11:22;2.40;;;0.95;;
10244;SDS011;5167;52.164;10.530;2022-08-21T15:13:51;2.15;;;1.50;;
10244;SDS011;5167;52.164;10.530;2022-08-21T15:16:20;4.05;;;1.20;;
10244;SDS011;5167;52.164;10.530;2022-08-21T15:18:46;3.30;;;1.10;;
10244;SDS011;5167;52.164;10.530;2022-08-21T15:21:11;2.05;;;1.42;;
10244;SDS011;5167;52.164;10.530;2022-08-21T15:23:37;3.67;;;1.20;;
10244;SDS011;5167;52.164;10.530;2022-08-21T15:26:03;1.73;;;0.90;;
10244;SDS011;5167;52.164;10.530;2022-08-21T15:28:29;1.15;;;1.05;;
10244;SDS011;5167;52.164;10.530;2022-08-21T15:30:54;2.42;;;1.10;;
10244;SDS011;5167;52.164;10.530;2022-08-21T15:33:20;4.45;;;1.25;;
10244;SDS011;5167;52.164;10.530;2022-08-21T15:35:46;2.03;;;1.13;;
10244;SDS011;5167;52.164;10.530;2022-08-21T15:38:13;2.30;;;1.13;;
10244;SDS011;5167;52.164;10.530;2022-08-21T15:40:39;4.05;;;1.40;;
10244;SDS011;5167;52.164;10.530;2022-08-21T15:43:06;2.70;;;0.90;;
10244;SDS011;5167;52.164;10.530;2022-08-21T15:45:36;1.95;;;1.23;;
10244;SDS011;5167;52.164;10.530;2022-08-21T15:48:02;4.97;;;1.38;;
10244;SDS011;5167;52.164;10.530;2022-08-21T15:50:29;2.38;;;1.00;;
10244;SDS011;5167;52.164;10.530;2022-08-21T15:52:56;2.08;;;1.23;;
10244;SDS011;5167;52.164;10.530;2022-08-21T15:55:22;3.65;;;1.40;;
10244;SDS011;5167;52.164;10.530;2022-08-21T15:57:48;4.28;;;1.15;;
10244;SDS011;5167;52.164;10.530;2022-08-21T16:00:20;3.40;;;2.25;;
10244;SDS011;5167;52.164;10.530;2022-08-21T16:02:48;4.15;;;1.08;;
10244;SDS011;5167;52.164;10.530;2022-08-21T16:05:20;1.90;;;1.27;;
10244;SDS011;5167;52.164;10.530;2022-08-21T16:07:47;3.50;;;1.23;;
10244;SDS011;5167;52.164;10.530;2022-08-21T16:10:14;3.13;;;1.15;;
10244;SDS011;5167;52.164;10.530;2022-08-21T16:12:42;2.60;;;0.90;;
10244;SDS011;5167;52.164;10.530;2022-08-21T16:15:11;2.13;;;1.20;;
10244;SDS011;5167;52.164;10.530;2022-08-21T16:17:38;1.38;;;1.05;;
10244;SDS011;5167;52.164;10.530;2022-08-21T16:20:09;2.03;;;1.13;;
10244;SDS011;5167;52.164;10.530;2022-08-21T16:22:36;2.78;;;1.30;;
10244;SDS011;5167;52.164;10.530;2022-08-21T16:25:04;2.80;;;1.00;;
10244;SDS011;5167;52.164;10.530;2022-08-21T16:27:31;5.47;;;1.45;;
10244;SDS011;5167;52.164;10.530;2022-08-21T16:29:58;2.40;;;1.38;;
10244;SDS011;5167;52.164;10.530;2022-08-21T16:32:24;6.20;;;1.65;;
10244;SDS011;5167;52.164;10.530;2022-08-21T16:34:50;2.92;;;1.10;;
10244;SDS011;5167;52.164;10.530;2022-08-21T16:37:16;4.03;;;1.40;;